Flight Track Log - Related Links

Times and Time Zones

All times are in EDT time to prevent confusion due to time zone crossing. See the FIV521 flight status page for this flight to view local times or setup timezone preferences in your user account.

Time Position Orientation Groundspeed Altitude Reporting Facility
EDT Latitude Longitude Course Direction KTS MPH feet Rate Location/Type
Wed 06:43:01 PM 43.0211 -89.2906 163° South 226 260 7,300  Level Chicago Center
Wed 06:44:03 PM 42.9458 -89.2522 160° South 285 328 10,400 2,661 Climbing Chicago Center
Wed 06:45:05 PM 42.8800 -89.1378 128° Southeast 334 384 12,800 2,226 Climbing Chicago Center
Wed 06:46:07 PM 42.8108 -89.0447 135° Southeast 351 404 15,000 2,129 Climbing Chicago Center
Wed 06:47:00 PM 42.5364 -89.0863 144° Southeast  Level FlightAware Approximate
Wed 06:47:09 PM 42.7192 -88.9958 159° South 353 406 17,200  Level Chicago Center
Wed 06:48:11 PM 42.6269 -88.9439 157° South 358 412 19,400 2,129 Climbing Chicago Center
Wed 06:49:13 PM 42.5331 -88.8922 158° South 364 419 21,600 2,226 Climbing Chicago Center
Wed 06:50:15 PM 42.4194 -88.8297 158° South 376 433 24,000 2,032 Climbing Chicago Center
Wed 06:51:17 PM 42.3244 -88.7775 158° South 382 440 25,800 1,597 Climbing Chicago Center
Wed 06:52:19 PM 42.2219 -88.7219 158° South 397 457 27,300 1,440 Climbing Chicago Center
Wed 06:53:22 PM 42.1169 -88.6644 158° South 408 470 28,800 1,488 Climbing Chicago Center
Wed 06:54:24 PM 41.9897 -88.5953 158° South 413 475 30,400 1,597 Climbing Chicago Center
Wed 06:55:26 PM 41.8822 -88.5358 158° South 418 481 32,100 1,548 Climbing Chicago Center
Wed 06:56:28 PM 41.7753 -88.4775 158° South 419 482 33,600 1,452 Climbing Chicago Center
Wed 06:57:30 PM 41.6689 -88.4192 158° South 418 481 35,100 1,452 Climbing Chicago Center
Wed 06:58:32 PM 41.5642 -88.3636 158° South 413 475 36,600 1,597 Climbing Chicago Center
Wed 06:59:34 PM 41.4397 -88.2967 158° South 409 471 38,400 1,597 Climbing Chicago Center
Wed 07:00:36 PM 41.3383 -88.2417 158° South 406 467 39,900 1,210 Climbing Chicago Center
Wed 07:01:38 PM 41.2392 -88.1894 158° South 396 456 40,900 532 Climbing Chicago Center
Wed 07:02:40 PM 41.1147 -88.1233 158° South 405 466 41,000 48 Climbing Chicago Center
Wed 07:03:42 PM 41.0064 -88.0658 158° South 421 484 41,000  Level Chicago Center
Wed 07:04:45 PM 40.8958 -88.0064 158° South 430 495 41,000  Level Chicago Center
Wed 07:05:47 PM 40.7836 -87.9481 159° South 434 499 41,000  Level Chicago Center
Wed 07:06:49 PM 40.6728 -87.8886 158° South 434 499 41,000  Level Chicago Center
Wed 07:07:51 PM 40.5375 -87.8186 159° South 436 502 41,000  Level Chicago Center
Wed 07:08:53 PM 40.4267 -87.7600 158° South 434 499 41,000  Level Chicago Center
Wed 07:09:55 PM 40.3142 -87.7022 159° South 437 503 41,000  Level Chicago Center
Wed 07:10:13 PM 40.2867 -87.6906 162° South 434 499 41,000  Level Indianapolis Center
Wed 07:11:15 PM 40.1739 -87.6336 159° South 436 502 41,000  Level Indianapolis Center
Wed 07:12:17 PM 40.0397 -87.5644 158° South 434 499 41,000  Level Indianapolis Center
Wed 07:13:19 PM 39.9275 -87.5069 159° South 435 501 41,000  Level Indianapolis Center
Wed 07:14:21 PM 39.8142 -87.4489 159° South 440 506 41,000  Level Indianapolis Center
Wed 07:15:23 PM 39.7022 -87.3925 159° South 437 503 41,000  Level Indianapolis Center
Wed 07:16:25 PM 39.5906 -87.3364 159° South 434 499 41,000  Level Indianapolis Center
Wed 07:17:27 PM 39.4561 -87.2678 158° South 435 501 41,000  Level Indianapolis Center
Wed 07:18:29 PM 39.3425 -87.2106 159° South 439 505 41,000  Level Indianapolis Center
Wed 07:19:30 PM 39.2303 -87.1544 159° South 437 503 41,000  Level Indianapolis Center
Wed 07:20:32 PM 39.1125 -87.0958 159° South 438 504 41,000  Level Indianapolis Center
Wed 07:21:34 PM 38.9986 -87.0400 159° South 435 501 41,000  Level Indianapolis Center
Wed 07:22:36 PM 38.8844 -86.9833 159° South 437 503 41,000  Level Indianapolis Center
Wed 07:23:38 PM 38.7697 -86.9267 159° South 438 504 41,000  Level Indianapolis Center
Wed 07:24:40 PM 38.6553 -86.8706 159° South 437 503 41,000  Level Indianapolis Center
Wed 07:25:42 PM 38.5175 -86.8039 159° South 436 502 41,000  Level Indianapolis Center
Wed 07:26:43 PM 38.4033 -86.7475 159° South 433 498 41,000  Level Indianapolis Center
Wed 07:27:45 PM 38.2883 -86.6925 159° South 434 499 41,000  Level Indianapolis Center
Wed 07:28:47 PM 38.1736 -86.6369 159° South 436 502 41,000  Level Indianapolis Center
Wed 07:29:49 PM 38.0592 -86.5819 159° South 435 501 41,000  Level Indianapolis Center
Wed 07:30:51 PM 37.9444 -86.5269 159° South 437 503 41,000  Level Indianapolis Center
Wed 07:31:53 PM 37.8308 -86.4719 159° South 435 501 41,000  Level Indianapolis Center
Wed 07:32:54 PM 37.7167 -86.4211 161° South 434 499 41,000  Level Indianapolis Center
Wed 07:33:56 PM 37.6022 -86.3656 159° South 434 499 41,000  Level Indianapolis Center
Wed 07:34:32 PM 37.5186 -86.3278 160° South 436 502 41,000  Level Memphis Center
Wed 07:35:32 PM 37.4061 -86.2708 158° South 436 502 41,000  Level Memphis Center
Wed 07:36:00 PM 37.3544 -86.2483 161° South 432 497 41,000  Level Indianapolis Center
Wed 07:36:32 PM 37.2919 -86.2169 158° South 431 496 41,000  Level Memphis Center
Wed 07:37:32 PM 37.1775 -86.1631 159° South 440 506 41,000  Level Memphis Center
Wed 07:38:32 PM 37.0633 -86.1092 159° South 440 506 41,000  Level Memphis Center
Wed 07:39:32 PM 36.9531 -86.0581 160° South 435 501 41,000  Level Memphis Center
Wed 07:40:32 PM 36.8389 -86.0044 159° South 435 501 41,000 -1,400 Level Memphis Center
Wed 07:41:32 PM 36.7350 -85.9556 159° South 435 501 38,200 -2,850 Descending Memphis Center
Wed 07:42:32 PM 36.6183 -85.9025 160° South 440 506 35,300 -1,650 Descending Memphis Center
Wed 07:43:32 PM 36.4956 -85.8447 159° South 459 528 34,900 -1,100 Descending Memphis Center
Wed 07:44:32 PM 36.3556 -85.7831 160° South 476 548 33,100 -950 Descending Memphis Center
Wed 07:45:32 PM 36.2347 -85.7281 160° South 476 548 33,000 -50 Descending Memphis Center
Wed 07:46:32 PM 36.1094 -85.6683 159° South 476 548 33,000  Level Memphis Center
Wed 07:47:57 PM 35.9317 -85.5903 160° South 480 552 33,000  Level Atlanta Center
Wed 07:48:58 PM 35.8053 -85.5342 160° South 485 558 33,000  Level Atlanta Center
Wed 07:49:57 PM 35.6828 -85.4781 160° South 485 558 33,000  Level Atlanta Center
Wed 07:50:57 PM 35.5583 -85.4222 160° South 485 558 33,000  Level Atlanta Center
Wed 07:51:58 PM 35.4503 -85.3747 160° South 480 552 33,000 -250 Level Atlanta Center
Wed 07:52:57 PM 35.3319 -85.3219 160° South 470 541 32,500 -1,850 Descending Atlanta Center
Wed 07:53:58 PM 35.2156 -85.2667 159° South 459 528 29,300 -2,975 Descending Atlanta Center
Wed 07:54:58 PM 35.0992 -85.2167 161° South 454 522 26,500 -2,622 Descending Atlanta Center
Wed 07:55:57 PM 34.9786 -85.1642 160° South 454 522 24,100 -2,350 Descending Atlanta Center
Wed 07:56:58 PM 34.8619 -85.1500 174° South 440 506 21,800 -2,250 Descending Atlanta Center
Wed 07:57:57 PM 34.7453 -85.1458 178° South 425 489 19,600 -2,168 Descending Atlanta Center
Wed 07:58:57 PM 34.6367 -85.1369 176° South 411 473 17,500 -2,200 Descending Atlanta Center
Wed 07:59:57 PM 34.5283 -85.1181 172° South 399 459 15,200 -2,281 Descending Atlanta Center
Wed 08:00:58 PM 34.4414 -85.0489 147° Southeast 380 437 12,900 -2,231 Descending Atlanta Center
Wed 08:01:58 PM 34.3561 -84.9875 149° Southeast 361 415 10,700 -2,218 Descending Atlanta Center
Wed 08:02:57 PM 34.2817 -84.9289 147° Southeast 331 381 8,500 -1,350 Descending Atlanta Center
Wed 08:03:58 PM 34.2108 -84.8753 148° Southeast 310 357 8,000 -595 Descending Atlanta Center
Wed 08:04:58 PM 34.1425 -84.8042 139° Southeast 299 344 7,300 -1,000 Descending Atlanta Center
Wed 08:05:58 PM 34.1033 -84.7236 120° Southeast 283 326 6,000 -1,300 Descending Atlanta Center
Wed 08:06:58 PM 34.0683 -84.6581 123° Southeast 253 291 4,700 -1,000 Descending Atlanta Center
Wed 08:07:58 PM 34.0350 -84.5953 123° Southeast 229 264 4,000 -350 Descending Atlanta Center
Wed 08:08:58 PM 34.0000 -84.5300 123° Southeast 229 264 4,000 -200 Level Atlanta Center
Wed 08:09:58 PM 33.9606 -84.4744 131° Southeast 229 264 3,600 -500 Descending Atlanta Center
Wed 08:10:58 PM 33.9167 -84.4317 141° Southeast 224 258 3,000 -471 Descending Atlanta Center
Wed 08:12:18 PM 33.8667 -84.3500 126° Southeast 204 235 2,500 -600 Descending Atlanta TRACON
Wed 08:13:18 PM 33.8500 -84.3167 121° Southeast 139 160 1,600 -900 Descending Atlanta TRACON
Wed 08:15:00 PM 33.8667 -84.3000 123° Southeast  Level FlightAware Approximate
Wed 08:22:00 PM 33.8756 -84.3020 123° Southeast  Level Estimated

Login

Don't have an account? Register now (free) for customized features, flight alerts, and more!